createdAt,value
2019-01-23T00:02:06.995Z,-1.70
2019-01-23T00:04:37.388Z,-1.90
2019-01-23T00:07:08.309Z,-1.80
2019-01-23T00:09:41.716Z,-1.90
2019-01-23T00:12:12.163Z,-1.90
2019-01-23T00:14:42.469Z,-1.80
2019-01-23T00:17:12.786Z,-1.80
2019-01-23T00:19:44.071Z,-1.80
2019-01-23T00:22:14.796Z,-1.90
2019-01-23T00:24:47.719Z,-1.90
2019-01-23T00:27:21.225Z,-1.90
2019-01-23T00:29:51.408Z,-1.90
2019-01-23T00:32:30.629Z,-1.90
2019-01-23T00:35:01.261Z,-1.80
2019-01-23T00:37:32.070Z,-1.80
2019-01-23T00:40:02.732Z,-1.90
2019-01-23T00:42:33.514Z,-1.90
2019-01-23T00:45:05.246Z,-1.80
2019-01-23T00:47:36.801Z,-1.90
2019-01-23T00:50:07.592Z,-2.00
2019-01-23T00:52:37.855Z,-2.00
2019-01-23T00:55:09.843Z,-1.90
2019-01-23T00:57:41.436Z,-2.00
2019-01-23T01:00:20.908Z,-2.00
2019-01-23T01:02:51.525Z,-1.90
2019-01-23T01:05:21.987Z,-1.90
2019-01-23T01:07:53.672Z,-1.80
2019-01-23T01:10:23.786Z,-1.90
2019-01-23T01:12:54.460Z,-1.90
2019-01-23T01:15:27.439Z,-1.90
2019-01-23T01:18:01.004Z,-1.80
2019-01-23T01:20:31.258Z,-1.80
2019-01-23T01:23:01.493Z,-1.80
2019-01-23T01:25:33.435Z,-1.80
2019-01-23T01:28:03.181Z,-1.70
2019-01-23T01:30:34.110Z,-1.70
2019-01-23T01:33:05.701Z,-1.70
2019-01-23T01:35:35.908Z,-1.70
2019-01-23T01:38:06.108Z,-1.70
2019-01-23T01:40:35.715Z,-1.70
2019-01-23T01:43:05.976Z,-1.70
2019-01-23T01:45:36.272Z,-1.60
2019-01-23T01:48:06.990Z,-1.70
2019-01-23T01:50:39.623Z,-1.60
2019-01-23T01:53:09.513Z,-1.70
2019-01-23T01:55:39.707Z,-1.70
2019-01-23T01:58:10.291Z,-1.70
2019-01-23T02:00:40.948Z,-1.70
2019-01-23T02:03:15.334Z,-1.60
2019-01-23T02:05:45.580Z,-1.50
2019-01-23T02:08:15.906Z,-1.50
2019-01-23T02:10:46.035Z,-1.60
2019-01-23T02:13:16.233Z,-1.60
2019-01-23T02:15:46.347Z,-1.60
2019-01-23T02:18:16.752Z,-1.60
2019-01-23T02:20:50.302Z,-1.60
2019-01-23T02:23:20.808Z,-1.60
2019-01-23T02:25:53.601Z,-1.60
2019-01-23T02:28:23.995Z,-1.50
2019-01-23T02:30:54.518Z,-1.50
2019-01-23T02:33:25.071Z,-1.60
2019-01-23T02:35:55.207Z,-1.60
2019-01-23T02:38:25.500Z,-1.50
2019-01-23T02:40:56.122Z,-1.50
2019-01-23T02:43:26.375Z,-1.40
2019-01-23T02:46:00.247Z,-1.40
2019-01-23T02:48:29.663Z,-1.50
2019-01-23T02:50:59.711Z,-1.50
2019-01-23T02:53:30.413Z,-1.50
2019-01-23T02:56:00.893Z,-1.50
2019-01-23T02:58:31.821Z,-1.40
2019-01-23T03:01:01.766Z,-1.30
2019-01-23T03:03:32.004Z,-1.40
2019-01-23T03:06:02.811Z,-1.40
2019-01-23T03:08:33.159Z,-1.40
2019-01-23T03:11:06.154Z,-1.30
2019-01-23T03:13:37.703Z,-1.20
2019-01-23T03:16:08.010Z,-1.20
2019-01-23T03:18:38.353Z,-1.20
2019-01-23T03:21:08.564Z,-1.30
2019-01-23T03:23:39.017Z,-1.30
2019-01-23T03:26:09.176Z,-1.20
2019-01-23T03:28:45.698Z,-1.20
2019-01-23T03:31:21.622Z,-1.10
2019-01-23T03:33:52.940Z,-1.10
2019-01-23T03:36:22.944Z,-1.20
2019-01-23T03:38:53.225Z,-1.20
2019-01-23T03:41:23.822Z,-1.10
2019-01-23T03:43:54.274Z,-1.20
2019-01-23T03:46:26.812Z,-1.20
2019-01-23T03:48:57.189Z,-1.10
2019-01-23T03:51:28.022Z,-1.10
2019-01-23T03:53:58.221Z,-1.20
2019-01-23T03:56:29.270Z,-1.10
2019-01-23T03:58:59.917Z,-1.10
2019-01-23T04:01:30.027Z,-1.20
2019-01-23T04:04:00.154Z,-1.20
2019-01-23T04:06:30.508Z,-1.10
2019-01-23T04:09:03.501Z,-1.10
2019-01-23T04:11:34.272Z,-1.10
2019-01-23T04:14:04.310Z,-1.20
2019-01-23T04:16:34.341Z,-1.10
2019-01-23T04:19:04.812Z,-1.20
2019-01-23T04:21:35.172Z,-1.20
2019-01-23T04:24:05.484Z,-1.20
2019-01-23T04:26:35.895Z,-1.10
2019-01-23T04:29:06.040Z,-1.00
2019-01-23T04:31:35.657Z,-1.10
2019-01-23T04:34:05.675Z,-1.20
2019-01-23T04:36:35.449Z,-1.20
2019-01-23T04:39:07.988Z,-1.20
2019-01-23T04:41:38.288Z,-1.10
2019-01-23T04:44:08.192Z,-1.10
2019-01-23T04:46:38.095Z,-1.10
2019-01-23T04:49:08.614Z,-1.00
2019-01-23T04:52:03.368Z,-1.00
2019-01-23T04:54:33.649Z,-1.10
2019-01-23T04:57:06.371Z,-1.20
2019-01-23T04:59:36.757Z,-1.10
2019-01-23T05:02:06.766Z,-1.10
2019-01-23T05:04:36.853Z,-1.10
2019-01-23T05:07:06.666Z,-1.00
2019-01-23T05:09:36.499Z,-1.00
2019-01-23T05:12:06.490Z,-0.90
2019-01-23T05:14:36.409Z,-1.00
2019-01-23T05:17:06.476Z,-1.10
2019-01-23T05:19:36.632Z,-1.10
2019-01-23T05:22:06.449Z,-1.00
2019-01-23T05:24:36.314Z,-1.10
2019-01-23T05:27:06.251Z,-1.20
2019-01-23T05:29:36.591Z,-1.30
2019-01-23T05:32:06.293Z,-1.20
2019-01-23T05:34:36.127Z,-1.10
2019-01-23T05:37:06.033Z,-1.00
2019-01-23T05:39:36.091Z,-1.10
2019-01-23T05:42:06.261Z,-1.10
2019-01-23T05:44:35.880Z,-1.10
2019-01-23T05:47:06.023Z,-1.00
2019-01-23T05:49:36.133Z,-1.00
2019-01-23T05:52:06.005Z,-1.10
2019-01-23T05:54:35.614Z,-1.10
2019-01-23T05:57:05.427Z,-1.10
2019-01-23T05:59:34.981Z,-1.10
2019-01-23T06:02:05.186Z,-1.10
2019-01-23T06:04:35.454Z,-1.10
2019-01-23T06:07:05.408Z,-1.00
2019-01-23T06:09:36.426Z,-1.10
2019-01-23T06:12:06.745Z,-1.10
2019-01-23T06:14:36.877Z,-1.20
2019-01-23T06:17:07.094Z,-1.20
2019-01-23T06:19:37.132Z,-1.40
2019-01-23T06:22:07.214Z,-1.40
2019-01-23T06:24:37.085Z,-1.40
2019-01-23T06:27:07.017Z,-1.30
2019-01-23T06:29:36.653Z,-1.30
2019-01-23T06:32:06.880Z,-1.30
2019-01-23T06:34:36.484Z,-1.30
2019-01-23T06:37:06.246Z,-1.40
2019-01-23T06:39:36.396Z,-1.60
2019-01-23T06:42:06.314Z,-1.70
2019-01-23T06:44:35.926Z,-1.60
2019-01-23T06:47:20.835Z,-1.70
2019-01-23T06:49:50.492Z,-1.60
2019-01-23T06:52:20.312Z,-1.70
2019-01-23T06:54:50.214Z,-1.80
2019-01-23T06:57:19.801Z,-2.00
2019-01-23T06:59:49.630Z,-2.10
2019-01-23T07:02:19.807Z,-1.90
2019-01-23T07:04:49.669Z,-2.10
2019-01-23T07:07:19.164Z,-1.90
2019-01-23T07:09:49.202Z,-1.90
2019-01-23T07:12:19.194Z,-1.90
2019-01-23T07:14:48.844Z,-1.90
2019-01-23T07:17:18.509Z,-2.00
2019-01-23T07:19:47.880Z,-2.20
2019-01-23T07:22:17.821Z,-2.20
2019-01-23T07:24:47.761Z,-2.20
2019-01-23T07:27:17.160Z,-2.20
2019-01-23T07:29:46.741Z,-2.10
2019-01-23T07:32:16.657Z,-2.00
2019-01-23T07:34:46.318Z,-2.20
2019-01-23T07:37:16.069Z,-2.20
2019-01-23T07:39:45.844Z,-2.10
2019-01-23T07:42:15.865Z,-2.10
2019-01-23T07:44:45.612Z,-2.00
2019-01-23T07:47:15.601Z,-1.90
2019-01-23T07:49:45.239Z,-1.90
2019-01-23T07:52:15.358Z,-1.80
2019-01-23T07:54:45.120Z,-1.70
2019-01-23T07:57:14.883Z,-1.80
2019-01-23T07:59:44.410Z,-1.80
2019-01-23T08:02:14.165Z,-1.80
2019-01-23T08:04:44.047Z,-1.80
2019-01-23T08:07:13.560Z,-1.70
2019-01-23T08:09:43.507Z,-1.80
2019-01-23T08:12:13.149Z,-1.60
2019-01-23T08:14:42.726Z,-1.60
2019-01-23T08:17:12.356Z,-1.60
2019-01-23T08:19:42.122Z,-1.60
2019-01-23T08:22:12.002Z,-1.60
2019-01-23T08:24:41.853Z,-1.60
2019-01-23T08:27:11.880Z,-1.60
2019-01-23T08:29:41.579Z,-1.60
2019-01-23T08:32:11.419Z,-1.50
2019-01-23T08:34:41.318Z,-1.50
2019-01-23T08:37:11.156Z,-1.50
2019-01-23T08:39:40.819Z,-1.40
2019-01-23T08:42:10.917Z,-1.40
2019-01-23T08:44:40.921Z,-1.40
2019-01-23T08:47:10.763Z,-1.30
2019-01-23T08:49:40.562Z,-1.10
2019-01-23T08:52:10.320Z,-1.10
2019-01-23T08:54:39.986Z,-1.20
2019-01-23T08:57:09.715Z,-1.10
2019-01-23T08:59:39.299Z,-1.20
2019-01-23T09:02:09.481Z,-1.00
2019-01-23T09:04:39.027Z,-0.90
2019-01-23T09:07:09.043Z,-0.90
2019-01-23T09:09:38.998Z,-0.90
2019-01-23T09:12:08.883Z,-0.90
2019-01-23T09:14:38.636Z,-1.00
2019-01-23T09:17:08.765Z,-0.80
2019-01-23T09:19:38.506Z,-0.60
2019-01-23T09:22:08.218Z,-0.60
2019-01-23T09:24:38.159Z,-0.50
2019-01-23T09:27:08.155Z,-0.50
2019-01-23T09:29:37.741Z,-0.40
2019-01-23T09:32:39.233Z,-0.30
2019-01-23T09:35:51.504Z,-0.40
2019-01-23T09:38:45.961Z,-0.50
2019-01-23T09:41:42.115Z,-0.30
2019-01-23T09:44:48.590Z,-0.30
2019-01-23T09:47:23.393Z,-0.60
2019-01-23T09:50:15.957Z,-0.50
2019-01-23T09:53:11.878Z,-0.60
2019-01-23T09:55:41.753Z,-0.70
2019-01-23T09:58:12.592Z,-0.60
2019-01-23T10:00:42.447Z,-0.60
2019-01-23T10:03:12.352Z,-0.60
2019-01-23T10:05:42.061Z,-0.50
2019-01-23T10:08:11.873Z,-0.50
2019-01-23T10:10:41.479Z,-0.40
2019-01-23T10:13:11.077Z,-0.40
2019-01-23T10:15:44.575Z,-0.50
2019-01-23T10:18:14.750Z,-0.40
2019-01-23T10:20:44.518Z,-0.40
2019-01-23T10:23:14.513Z,-0.30
2019-01-23T10:25:44.391Z,-0.20
2019-01-23T10:28:15.163Z,0.00
2019-01-23T10:30:44.974Z,-0.10
2019-01-23T10:33:14.750Z,-0.20
2019-01-23T10:35:44.755Z,-0.20
2019-01-23T10:38:14.302Z,-0.40
2019-01-23T10:40:44.121Z,-0.30
2019-01-23T10:43:14.844Z,-0.50
2019-01-23T10:45:44.870Z,-0.40
2019-01-23T10:48:14.630Z,-0.10
2019-01-23T10:50:44.515Z,-0.20
2019-01-23T10:53:14.098Z,-0.10
2019-01-23T10:55:44.102Z,0.10
2019-01-23T10:58:13.790Z,0.00
2019-01-23T11:00:43.667Z,-0.20
2019-01-23T11:03:13.431Z,-0.20
2019-01-23T11:05:44.027Z,-0.10
2019-01-23T11:08:13.792Z,0.00
2019-01-23T11:10:43.783Z,0.00
2019-01-23T11:13:13.388Z,0.10
2019-01-23T11:15:42.885Z,0.00
2019-01-23T11:18:12.708Z,-0.30
2019-01-23T11:20:42.471Z,-0.30
2019-01-23T11:23:12.467Z,-0.30
2019-01-23T11:25:42.472Z,-0.50
2019-01-23T11:28:12.459Z,-0.50
2019-01-23T11:30:42.125Z,-0.20
2019-01-23T11:33:11.674Z,-0.10
2019-01-23T11:35:41.877Z,-0.10
2019-01-23T11:38:11.629Z,0.00
2019-01-23T11:40:41.777Z,0.00
2019-01-23T11:43:11.524Z,0.30
2019-01-23T11:45:41.529Z,0.30
2019-01-23T11:48:11.563Z,0.30
2019-01-23T11:50:41.466Z,0.40
2019-01-23T11:53:12.003Z,0.50
2019-01-23T11:55:41.924Z,0.30
2019-01-23T11:58:11.449Z,0.30
2019-01-23T12:00:41.323Z,0.30
2019-01-23T12:03:11.036Z,0.50
2019-01-23T12:05:40.905Z,0.60
2019-01-23T12:08:10.547Z,0.60
2019-01-23T12:10:40.556Z,0.30
2019-01-23T12:13:10.306Z,0.30
2019-01-23T12:15:41.033Z,0.40
2019-01-23T12:18:11.026Z,0.50
2019-01-23T12:20:40.791Z,0.70
2019-01-23T12:23:10.643Z,0.80
2019-01-23T12:25:40.186Z,0.80
2019-01-23T12:28:09.946Z,0.90
2019-01-23T12:30:39.469Z,0.90
2019-01-23T12:33:09.226Z,1.10
2019-01-23T12:35:39.103Z,1.20
2019-01-23T12:38:08.743Z,1.30
2019-01-23T12:40:38.492Z,1.40
2019-01-23T12:43:08.390Z,1.40
2019-01-23T12:45:38.023Z,1.50
2019-01-23T12:48:08.322Z,1.30
2019-01-23T12:50:38.146Z,1.00
2019-01-23T12:53:07.903Z,0.90
2019-01-23T12:55:37.675Z,0.80
2019-01-23T12:58:07.544Z,1.20
2019-01-23T13:00:37.663Z,2.10
2019-01-23T13:03:07.844Z,2.70
2019-01-23T13:05:37.903Z,2.90
2019-01-23T13:08:07.720Z,3.10
2019-01-23T13:10:37.444Z,2.80
2019-01-23T13:13:07.305Z,3.30
2019-01-23T13:15:37.062Z,3.90
2019-01-23T13:18:06.991Z,4.00
2019-01-23T13:20:36.823Z,4.10
2019-01-23T13:23:06.580Z,3.50
2019-01-23T13:25:36.437Z,3.20
2019-01-23T13:28:06.589Z,2.90
2019-01-23T13:30:36.222Z,2.40
2019-01-23T13:33:06.467Z,2.30
2019-01-23T13:35:38.379Z,2.30
2019-01-23T13:38:11.503Z,2.20
2019-01-23T13:40:41.384Z,2.00
2019-01-23T13:43:11.740Z,1.90
2019-01-23T13:45:41.835Z,1.90
2019-01-23T13:48:12.239Z,1.70
2019-01-23T13:50:42.371Z,1.60
2019-01-23T13:53:12.458Z,1.60
2019-01-23T13:55:42.743Z,1.40
2019-01-23T13:58:12.587Z,1.30
2019-01-23T14:00:43.302Z,1.00
2019-01-23T14:03:12.964Z,1.00
2019-01-23T14:05:43.072Z,1.10
2019-01-23T14:08:13.740Z,1.20
2019-01-23T14:10:43.597Z,1.30
2019-01-23T14:13:14.021Z,1.40
2019-01-23T14:15:43.900Z,1.30
2019-01-23T14:18:13.702Z,1.10
2019-01-23T14:20:43.543Z,0.90
2019-01-23T14:23:13.549Z,0.70
2019-01-23T14:25:43.546Z,0.30
2019-01-23T14:28:13.660Z,-0.10
2019-01-23T14:30:45.337Z,0.00
2019-01-23T14:33:15.353Z,0.00
2019-01-23T14:35:46.668Z,-0.10
2019-01-23T14:38:16.375Z,-0.10
2019-01-23T14:40:46.431Z,-0.10
2019-01-23T14:43:16.253Z,-0.10
2019-01-23T14:45:47.140Z,-0.10
2019-01-23T14:48:25.908Z,-0.10
2019-01-23T14:50:55.668Z,-0.20
2019-01-23T14:53:25.376Z,-0.10
2019-01-23T14:55:55.306Z,-0.10
2019-01-23T14:58:25.419Z,-0.20
2019-01-23T15:01:19.509Z,-0.40
2019-01-23T15:03:49.175Z,-0.30
2019-01-23T15:06:19.176Z,-0.40
2019-01-23T15:09:25.088Z,-0.30
2019-01-23T15:11:55.065Z,-0.30
2019-01-23T15:14:24.690Z,-0.30
2019-01-23T15:16:54.578Z,-0.40
2019-01-23T15:19:24.215Z,-0.40
2019-01-23T15:21:54.423Z,-0.40
2019-01-23T15:24:23.998Z,-0.40
2019-01-23T15:26:53.974Z,-0.50
2019-01-23T15:29:23.633Z,-0.40
2019-01-23T15:31:53.375Z,-0.40
2019-01-23T15:34:23.407Z,-0.50
2019-01-23T15:36:53.396Z,-0.60
2019-01-23T15:39:23.257Z,-0.80
2019-01-23T15:41:53.046Z,-0.80
2019-01-23T15:44:23.014Z,-0.80
2019-01-23T15:46:52.893Z,-0.80
2019-01-23T15:49:22.895Z,-0.90
2019-01-23T15:51:52.781Z,-1.00
2019-01-23T15:54:22.582Z,-0.90
2019-01-23T15:56:52.732Z,-1.00
2019-01-23T15:59:22.549Z,-0.90
2019-01-23T16:01:52.659Z,-1.00
2019-01-23T16:04:22.416Z,-0.90
2019-01-23T16:06:52.904Z,-1.00
2019-01-23T16:09:22.778Z,-0.90
2019-01-23T16:11:53.039Z,-0.80
2019-01-23T16:14:23.104Z,-0.80
2019-01-23T16:16:52.912Z,-0.90
2019-01-23T16:19:23.414Z,-1.10
2019-01-23T16:21:53.735Z,-1.30
2019-01-23T16:24:23.881Z,-1.30
2019-01-23T16:26:53.861Z,-1.20
2019-01-23T16:29:23.974Z,-1.20
2019-01-23T16:31:54.947Z,-1.10
2019-01-23T16:34:25.540Z,-1.00
2019-01-23T16:36:55.788Z,-1.10
2019-01-23T16:39:25.903Z,-1.10
2019-01-23T16:41:55.911Z,-1.00
2019-01-23T16:44:25.903Z,-1.00
2019-01-23T16:46:55.864Z,-1.00
2019-01-23T16:49:26.134Z,-0.90
2019-01-23T16:51:56.262Z,-0.90
2019-01-23T16:54:26.639Z,-0.90
2019-01-23T16:56:56.738Z,-0.90
2019-01-23T16:59:26.988Z,-0.90
2019-01-23T17:01:57.181Z,-0.90
2019-01-23T17:04:27.472Z,-1.00
2019-01-23T17:06:57.343Z,-0.90
2019-01-23T17:09:27.776Z,-0.90
2019-01-23T17:11:57.757Z,-0.90
2019-01-23T17:14:28.058Z,-0.80
2019-01-23T17:16:57.950Z,-1.00
2019-01-23T17:19:28.057Z,-1.00
2019-01-23T17:21:57.920Z,-1.00
2019-01-23T17:24:27.828Z,-1.00
2019-01-23T17:26:57.454Z,-1.00
2019-01-23T17:29:30.730Z,-0.90
2019-01-23T17:31:58.541Z,-0.90
2019-01-23T17:34:28.228Z,-1.00
2019-01-23T17:36:58.180Z,-1.10
2019-01-23T17:39:28.294Z,-1.00
2019-01-23T17:41:58.053Z,-1.20
2019-01-23T17:44:27.748Z,-1.10
2019-01-23T17:46:58.174Z,-1.00
2019-01-23T17:49:28.179Z,-1.30
2019-01-23T17:51:58.514Z,-1.30
2019-01-23T17:54:28.225Z,-1.40
2019-01-23T17:56:58.534Z,-1.40
2019-01-23T17:59:28.943Z,-1.40
2019-01-23T18:01:59.014Z,-1.40
2019-01-23T18:04:28.959Z,-1.50
2019-01-23T18:06:59.978Z,-1.50
2019-01-23T18:09:29.729Z,-1.40
2019-01-23T18:11:59.560Z,-1.40
2019-01-23T18:14:29.612Z,-1.40
2019-01-23T18:16:59.738Z,-1.30
2019-01-23T18:19:29.729Z,-1.40
2019-01-23T18:21:59.616Z,-1.50
2019-01-23T18:24:29.370Z,-1.60
2019-01-23T18:26:59.654Z,-1.60
2019-01-23T18:29:30.073Z,-1.50
2019-01-23T18:32:03.879Z,-1.60
2019-01-23T18:35:23.015Z,-1.60
2019-01-23T18:38:12.492Z,-1.60
2019-01-23T18:41:14.138Z,-1.60
2019-01-23T18:44:37.575Z,-1.50
2019-01-23T18:47:33.158Z,-1.60
2019-01-23T18:50:46.921Z,-1.50
2019-01-23T18:53:16.897Z,-1.50
2019-01-23T18:55:47.154Z,-1.50
2019-01-23T18:58:17.256Z,-1.50
2019-01-23T19:00:47.131Z,-1.50
2019-01-23T19:03:17.251Z,-1.40
2019-01-23T19:05:47.854Z,-1.40
2019-01-23T19:08:17.981Z,-1.40
2019-01-23T19:10:47.860Z,-1.40
2019-01-23T19:13:17.738Z,-1.50
2019-01-23T19:15:47.883Z,-1.50
2019-01-23T19:18:18.296Z,-1.60
2019-01-23T19:20:48.579Z,-1.60
2019-01-23T19:23:18.006Z,-1.40
2019-01-23T19:25:48.100Z,-1.40
2019-01-23T19:28:17.975Z,-1.50
2019-01-23T19:30:48.054Z,-1.60
2019-01-23T19:33:17.852Z,-1.50
2019-01-23T19:35:48.130Z,-1.50
2019-01-23T19:38:18.408Z,-1.50
2019-01-23T19:40:49.677Z,-1.40
2019-01-23T19:43:19.561Z,-1.40
2019-01-23T19:45:49.842Z,-1.60
2019-01-23T19:48:20.072Z,-1.50
2019-01-23T19:50:49.814Z,-1.50
2019-01-23T19:53:19.649Z,-1.50
2019-01-23T19:55:50.247Z,-1.50
2019-01-23T19:58:20.315Z,-1.40
2019-01-23T20:00:50.599Z,-1.50
2019-01-23T20:03:20.794Z,-1.60
2019-01-23T20:05:50.860Z,-1.60
2019-01-23T20:08:20.969Z,-1.50
2019-01-23T20:10:51.094Z,-1.60
2019-01-23T20:13:20.638Z,-1.60
2019-01-23T20:15:50.488Z,-1.50
2019-01-23T20:18:20.254Z,-1.60
2019-01-23T20:20:50.199Z,-1.60
2019-01-23T20:23:20.169Z,-1.60
2019-01-23T20:25:50.127Z,-1.70
2019-01-23T20:28:20.063Z,-1.70
2019-01-23T20:30:49.883Z,-1.70
2019-01-23T20:33:19.886Z,-1.70
2019-01-23T20:35:50.487Z,-1.70
2019-01-23T20:38:20.900Z,-1.70
2019-01-23T20:40:51.322Z,-1.70
2019-01-23T20:43:21.442Z,-1.80
2019-01-23T20:45:51.649Z,-1.90
2019-01-23T20:48:21.681Z,-2.00
2019-01-23T20:50:52.046Z,-2.00
2019-01-23T20:53:21.805Z,-1.90
2019-01-23T20:55:52.061Z,-1.90
2019-01-23T20:58:22.044Z,-1.90
2019-01-23T21:00:51.921Z,-2.00
2019-01-23T21:03:21.692Z,-2.00
2019-01-23T21:05:52.174Z,-2.10
2019-01-23T21:08:22.291Z,-2.00
2019-01-23T21:10:52.282Z,-1.90
2019-01-23T21:13:22.163Z,-2.00
2019-01-23T21:15:53.614Z,-2.10
2019-01-23T21:18:23.489Z,-2.00
2019-01-23T21:20:53.637Z,-2.00
2019-01-23T21:23:23.485Z,-1.90
2019-01-23T21:25:53.798Z,-1.90
2019-01-23T21:28:23.853Z,-2.00
2019-01-23T21:30:53.639Z,-2.00
2019-01-23T21:33:23.526Z,-1.90
2019-01-23T21:35:53.366Z,-1.90
2019-01-23T21:38:23.460Z,-2.00
2019-01-23T21:40:53.560Z,-1.90
2019-01-23T21:43:23.867Z,-1.90
2019-01-23T21:45:53.610Z,-1.80
2019-01-23T21:48:23.980Z,-2.00
2019-01-23T21:50:53.918Z,-2.10
2019-01-23T21:53:24.110Z,-2.10
2019-01-23T21:55:57.923Z,-2.10
2019-01-23T21:58:28.172Z,-2.10
2019-01-23T22:00:59.862Z,-2.10
2019-01-23T22:03:29.778Z,-2.00
2019-01-23T22:06:00.255Z,-2.20
2019-01-23T22:08:30.559Z,-2.10
2019-01-23T22:11:01.007Z,-2.10
2019-01-23T22:13:31.076Z,-2.00
2019-01-23T22:16:06.028Z,-2.10
2019-01-23T22:18:36.098Z,-2.10
2019-01-23T22:21:05.980Z,-2.10
2019-01-23T22:23:35.538Z,-2.20
2019-01-23T22:26:05.307Z,-2.20
2019-01-23T22:28:35.120Z,-2.10
2019-01-23T22:31:04.818Z,-2.10
2019-01-23T22:33:35.054Z,-2.20
2019-01-23T22:36:05.245Z,-2.20
2019-01-23T22:38:34.797Z,-2.20
2019-01-23T22:41:04.769Z,-2.10
2019-01-23T22:43:35.380Z,-2.20
2019-01-23T22:46:05.236Z,-2.20
2019-01-23T22:48:35.023Z,-2.20
2019-01-23T22:51:05.125Z,-2.10
2019-01-23T22:53:34.403Z,-2.10
2019-01-23T22:56:04.250Z,-2.00
2019-01-23T22:58:34.099Z,-2.10
2019-01-23T23:01:21.448Z,-2.10
2019-01-23T23:03:51.340Z,-2.20
2019-01-23T23:06:22.389Z,-2.10
2019-01-23T23:08:52.172Z,-2.10
2019-01-23T23:11:21.797Z,-2.10
2019-01-23T23:13:51.828Z,-2.00
2019-01-23T23:16:22.037Z,-2.20
2019-01-23T23:18:52.400Z,-2.20
2019-01-23T23:21:22.157Z,-2.10
2019-01-23T23:23:52.645Z,-2.10
2019-01-23T23:26:22.515Z,-2.20
2019-01-23T23:28:52.321Z,-2.10
2019-01-23T23:31:22.300Z,-2.20
2019-01-23T23:33:51.677Z,-2.20
2019-01-23T23:36:21.500Z,-2.30
2019-01-23T23:38:51.443Z,-2.30
2019-01-23T23:41:21.519Z,-2.20
2019-01-23T23:43:51.537Z,-2.20
2019-01-23T23:46:21.245Z,-2.20
2019-01-23T23:48:51.210Z,-2.20
2019-01-23T23:51:39.195Z,-2.20
2019-01-23T23:54:09.559Z,-2.20
2019-01-23T23:56:39.531Z,-2.20
2019-01-23T23:59:09.084Z,-2.30
